Time;durP1;ratioP1;P1;durP2;ratioP2;P2;SDS_P1;SDS_P2;PMS_P1;PMS_P2;Temp;Humidity;BMP_temperature;BMP_pressure;BME280_temperature;BME280_humidity;BME280_pressure;Samples;Min_cycle;Max_cycle;Signal;HPM_P1;HPM_P2
2021/10/29 00:02:37;;;;;;;40.15;19.02;;;;;;;;;;8384019;28;20482;-70
2021/10/29 00:06:42;;;;;;;43.17;19.20;;;;;;;;;;8379422;28;20383;-71
2021/10/29 00:10:47;;;;;;;45.90;19.88;;;;;;;;;;8365396;28;20320;-70
2021/10/29 00:14:53;;;;;;;40.30;18.25;;;;;;;;;;8366495;28;20108;-69
2021/10/29 00:18:58;;;;;;;38.83;19.02;;;;;;;;;;8347754;28;20567;-69
2021/10/29 00:23:03;;;;;;;38.35;17.80;;;;;;;;;;8361293;28;20043;-70
2021/10/29 00:27:09;;;;;;;46.42;20.20;;;;;;;;;;8363808;28;20386;-69
2021/10/29 00:31:29;;;;;;;42.05;18.85;;;;;;;;;;8158455;28;20004239;-69
2021/10/29 00:35:34;;;;;;;40.45;19.10;;;;;;;;;;8328687;28;20927;-69
2021/10/29 00:39:40;;;;;;;38.42;19.05;;;;;;;;;;8327405;28;20066;-70
2021/10/29 00:43:45;;;;;;;47.75;20.13;;;;;;;;;;8327909;28;20505;-70
2021/10/29 00:47:52;;;;;;;39.60;19.05;;;;;;;;;;8309844;28;20463;-69
2021/10/29 00:51:58;;;;;;;45.08;18.73;;;;;;;;;;8308558;28;20378;-70
2021/10/29 00:56:03;;;;;;;32.42;16.80;;;;;;;;;;8327096;28;20048;-69
2021/10/29 01:00:12;;;;;;;42.20;17.42;;;;;;;;;;8326683;28;20463;-69
2021/10/29 01:04:18;;;;;;;36.75;16.90;;;;;;;;;;8308346;28;20429;-69
2021/10/29 01:08:23;;;;;;;42.70;16.92;;;;;;;;;;8327677;28;20395;-70
2021/10/29 01:12:28;;;;;;;36.05;18.15;;;;;;;;;;8308896;28;20347;-70
2021/10/29 01:16:33;;;;;;;38.78;17.63;;;;;;;;;;8325944;28;20375;-70
2021/10/29 01:20:38;;;;;;;32.90;16.25;;;;;;;;;;8325345;28;20344;-70
2021/10/29 01:24:43;;;;;;;32.40;16.42;;;;;;;;;;8308406;28;20494;-69
2021/10/29 01:28:49;;;;;;;40.15;18.70;;;;;;;;;;8325536;28;20413;-69
2021/10/29 01:32:54;;;;;;;41.45;17.42;;;;;;;;;;8308083;28;20095;-71
2021/10/29 01:36:59;;;;;;;39.97;16.70;;;;;;;;;;8327646;28;20497;-70
2021/10/29 01:41:06;;;;;;;43.25;19.02;;;;;;;;;;8325893;28;20336;-69
2021/10/29 01:45:12;;;;;;;40.40;18.92;;;;;;;;;;8307108;28;20348;-69
2021/10/29 01:49:17;;;;;;;36.55;16.35;;;;;;;;;;8325436;28;20351;-70
2021/10/29 01:53:22;;;;;;;33.90;16.90;;;;;;;;;;8307338;28;20044;-71
2021/10/29 01:57:28;;;;;;;43.22;17.23;;;;;;;;;;8307644;28;20371;-70
2021/10/29 02:01:33;;;;;;;40.58;17.88;;;;;;;;;;8290104;28;20363;-69
2021/10/29 02:05:41;;;;;;;33.47;15.60;;;;;;;;;;8325458;28;20495;-71
2021/10/29 02:09:47;;;;;;;34.92;17.42;;;;;;;;;;8308670;28;20470;-70
2021/10/29 02:13:53;;;;;;;33.92;16.13;;;;;;;;;;8306924;28;20394;-69
2021/10/29 02:17:58;;;;;;;40.95;16.85;;;;;;;;;;8323607;28;20397;-69
2021/10/29 02:22:03;;;;;;;34.50;15.48;;;;;;;;;;8323536;28;20489;-70
2021/10/29 02:26:08;;;;;;;39.40;17.25;;;;;;;;;;8289225;28;20044;-68
2021/10/29 02:30:13;;;;;;;27.80;14.75;;;;;;;;;;8326420;28;20344;-69
2021/10/29 02:34:18;;;;;;;37.53;16.15;;;;;;;;;;8323349;28;20044;-70
2021/10/29 02:38:23;;;;;;;26.05;13.85;;;;;;;;;;8324728;28;20062;-70
2021/10/29 02:42:29;;;;;;;39.85;15.25;;;;;;;;;;8290259;28;20443;-69
2021/10/29 02:46:36;;;;;;;33.33;14.65;;;;;;;;;;8323571;28;20356;-68
2021/10/29 02:50:41;;;;;;;36.58;16.48;;;;;;;;;;8306500;28;20339;-69
2021/10/29 02:54:46;;;;;;;33.72;16.50;;;;;;;;;;8322849;28;20447;-69
2021/10/29 02:58:51;;;;;;;35.25;16.35;;;;;;;;;;8305843;28;20327;-70
2021/10/29 03:02:57;;;;;;;39.15;16.00;;;;;;;;;;8324329;28;20346;-69
2021/10/29 03:07:04;;;;;;;31.60;13.77;;;;;;;;;;8288557;28;20052;-69
2021/10/29 03:11:08;;;;;;;37.47;15.43;;;;;;;;;;8290968;28;20392;-70
2021/10/29 03:15:13;;;;;;;31.42;14.75;;;;;;;;;;8290451;28;20456;-70
2021/10/29 03:19:19;;;;;;;38.70;14.77;;;;;;;;;;8287810;28;20070;-69
2021/10/29 03:23:24;;;;;;;33.03;15.23;;;;;;;;;;8287797;28;20460;-70
2021/10/29 03:27:29;;;;;;;33.22;15.15;;;;;;;;;;8289437;28;20372;-70
2021/10/29 03:31:34;;;;;;;38.78;14.32;;;;;;;;;;8290017;28;20063;-69
2021/10/29 03:35:40;;;;;;;28.27;14.15;;;;;;;;;;8287854;28;20408;-69
2021/10/29 03:39:51;;;;;;;37.97;13.60;;;;;;;;;;8288290;28;20370;-70
2021/10/29 03:44:02;;;;;;;35.17;14.07;;;;;;;;;;8290954;28;20447;-69
2021/10/29 03:48:07;;;;;;;29.63;14.15;;;;;;;;;;8290954;28;20383;-69
2021/10/29 03:52:19;;;;;;;27.42;15.23;;;;;;;;;;8290779;28;20044;-70
2021/10/29 03:56:26;;;;;;;31.48;14.63;;;;;;;;;;8295478;28;20356;-69
2021/10/29 04:00:32;;;;;;;33.72;14.13;;;;;;;;;;8294388;28;20044;-70
2021/10/29 04:04:37;;;;;;;28.17;12.95;;;;;;;;;;8296713;28;20344;-70
2021/10/29 04:08:42;;;;;;;30.77;14.25;;;;;;;;;;8327516;28;20418;-69
2021/10/29 04:12:47;;;;;;;34.00;15.85;;;;;;;;;;8312289;28;20055;-69
2021/10/29 04:16:52;;;;;;;40.72;16.13;;;;;;;;;;8310290;28;20364;-69
2021/10/29 04:20:57;;;;;;;30.55;16.15;;;;;;;;;;8328059;28;20354;-69
2021/10/29 04:25:04;;;;;;;37.00;14.85;;;;;;;;;;8310094;28;20062;-71
2021/10/29 04:29:14;;;;;;;54.45;26.73;;;;;;;;;;8327024;28;20370;-70
2021/10/29 04:33:20;;;;;;;49.30;18.77;;;;;;;;;;8309561;28;20367;-69
2021/10/29 04:37:26;;;;;;;46.92;19.55;;;;;;;;;;8307814;28;20439;-69
2021/10/29 04:41:31;;;;;;;46.38;19.40;;;;;;;;;;8309681;28;20397;-70
2021/10/29 04:45:37;;;;;;;40.95;19.00;;;;;;;;;;8310263;28;20351;-70
2021/10/29 04:49:42;;;;;;;57.92;22.92;;;;;;;;;;8310056;28;20482;-70
2021/10/29 04:53:48;;;;;;;57.55;23.65;;;;;;;;;;8310504;28;20470;-70
2021/10/29 04:57:54;;;;;;;53.78;23.33;;;;;;;;;;8309527;28;20486;-69
2021/10/29 05:01:59;;;;;;;55.30;23.80;;;;;;;;;;8327136;28;20472;-70
2021/10/29 05:06:04;;;;;;;56.42;24.27;;;;;;;;;;8308873;28;20079;-69
2021/10/29 05:10:10;;;;;;;55.28;21.75;;;;;;;;;;8308282;28;20402;-70
2021/10/29 05:14:15;;;;;;;48.75;20.38;;;;;;;;;;8325535;28;20367;-69
2021/10/29 05:18:21;;;;;;;42.83;17.75;;;;;;;;;;8308666;28;20435;-70
2021/10/29 05:22:26;;;;;;;43.15;19.70;;;;;;;;;;8325361;28;20475;-69
2021/10/29 05:26:31;;;;;;;40.63;18.05;;;;;;;;;;8327420;28;20480;-69
2021/10/29 05:30:38;;;;;;;45.25;17.50;;;;;;;;;;8245891;28;20055;-69
2021/10/29 05:34:43;;;;;;;40.25;17.25;;;;;;;;;;8257904;28;20356;-70
2021/10/29 05:38:48;;;;;;;33.35;14.82;;;;;;;;;;8242151;28;20468;-69
2021/10/29 05:42:53;;;;;;;32.75;14.88;;;;;;;;;;8257635;28;20053;-69
2021/10/29 05:46:58;;;;;;;42.30;18.58;;;;;;;;;;8258988;28;20371;-69
2021/10/29 05:51:09;;;;;;;38.70;17.02;;;;;;;;;;8259424;28;20369;-69
2021/10/29 05:55:16;;;;;;;29.85;15.30;;;;;;;;;;8256751;28;20057;-70
2021/10/29 05:59:21;;;;;;;33.97;13.98;;;;;;;;;;8258816;28;20380;-68
2021/10/29 06:03:27;;;;;;;40.85;14.32;;;;;;;;;;8211604;28;20380;-69
2021/10/29 06:07:33;;;;;;;27.50;12.82;;;;;;;;;;8257989;28;20067;-68
2021/10/29 06:11:38;;;;;;;35.17;14.48;;;;;;;;;;8256493;28;20342;-69
2021/10/29 06:15:45;;;;;;;30.88;13.82;;;;;;;;;;8259860;28;20452;-69
2021/10/29 06:19:51;;;;;;;28.73;13.45;;;;;;;;;;8258087;28;20041;-69
2021/10/29 06:23:59;;;;;;;28.55;13.50;;;;;;;;;;8190185;28;20041;-69
2021/10/29 06:28:20;;;;;;;;;;;;;;;;;;8299082;28;20359;-69
2021/10/29 06:32:25;;;;;;;33.28;15.38;;;;;;;;;;8259163;28;20320;-70
2021/10/29 06:36:30;;;;;;;32.80;15.70;;;;;;;;;;8239730;28;20464;-70
2021/10/29 06:40:39;;;;;;;37.22;16.83;;;;;;;;;;8257149;28;20360;-69
2021/10/29 06:44:53;;;;;;;46.83;19.67;;;;;;;;;;8258331;28;20460;-69
2021/10/29 06:49:14;;;;;;;59.85;24.35;;;;;;;;;;8258571;28;20340;-70
2021/10/29 07:02:25;;;;;;;64.35;29.23;;;;;;;;;;8256455;28;20045;-70
2021/10/29 07:41:36;;;;;;;50.65;24.35;;;;;;;;;;8262113;28;20457;-71
2021/10/29 07:45:43;;;;;;;37.15;18.27;;;;;;;;;;8261452;28;20053;-70
2021/10/29 07:49:48;;;;;;;49.27;22.47;;;;;;;;;;8261425;28;20076;-71
2021/10/29 07:53:54;;;;;;;75.13;31.00;;;;;;;;;;8262465;28;20045;-70
2021/10/29 07:58:02;;;;;;;46.53;22.85;;;;;;;;;;8262004;28;20049;-71
2021/10/29 08:02:07;;;;;;;40.95;22.38;;;;;;;;;;8263065;28;20053;-70
2021/10/29 08:06:13;;;;;;;30.85;15.90;;;;;;;;;;8206354;28;20478;-71
2021/10/29 08:10:19;;;;;;;33.58;19.25;;;;;;;;;;8278335;28;20041;-70
2021/10/29 08:14:24;;;;;;;42.75;19.60;;;;;;;;;;8261691;28;20067;-71
2021/10/29 08:18:30;;;;;;;38.15;18.98;;;;;;;;;;8261397;28;20337;-70
2021/10/29 08:22:37;;;;;;;63.13;32.70;;;;;;;;;;8262546;28;20479;-72
2021/10/29 08:26:42;;;;;;;43.00;24.05;;;;;;;;;;8260798;28;20432;-72
2021/10/29 08:30:47;;;;;;;40.10;21.77;;;;;;;;;;8260466;28;20375;-71
2021/10/29 08:34:52;;;;;;;35.45;20.92;;;;;;;;;;8261202;28;20334;-70
2021/10/29 08:38:57;;;;;;;35.95;19.70;;;;;;;;;;8244284;28;20041;-73
2021/10/29 08:43:07;;;;;;;33.35;19.13;;;;;;;;;;8261245;28;20487;-69
2021/10/29 08:47:14;;;;;;;35.85;17.92;;;;;;;;;;8261304;28;20482;-71
2021/10/29 08:51:20;;;;;;;34.50;16.07;;;;;;;;;;8259742;28;20080;-71
2021/10/29 08:55:27;;;;;;;23.33;13.43;;;;;;;;;;8261593;28;20477;-72
2021/10/29 08:59:33;;;;;;;26.77;14.33;;;;;;;;;;8260805;28;20049;-71
2021/10/29 09:03:46;;;;;;;31.27;17.23;;;;;;;;;;8260427;28;20403;-70
2021/10/29 09:08:16;;;;;;;28.35;16.33;;;;;;;;;;8259330;28;20111;-75
2021/10/29 09:34:58;;;;;;;11.05;4.88;;;;;;;;;;8260608;28;20479;-72
2021/10/29 09:39:17;;;;;;;12.60;5.93;;;;;;;;;;8260522;28;20448;-70
2021/10/29 09:43:39;;;;;;;8.63;5.20;;;;;;;;;;8257873;28;20053;-70
2021/10/29 09:47:53;;;;;;;10.88;5.70;;;;;;;;;;8259698;28;20407;-70
2021/10/29 09:52:37;;;;;;;11.45;5.28;;;;;;;;;;8258502;28;20525;-70
2021/10/29 09:56:54;;;;;;;12.05;7.15;;;;;;;;;;8258201;28;20479;-71
2021/10/29 10:01:01;;;;;;;14.30;7.28;;;;;;;;;;8259984;28;20384;-72
2021/10/29 10:05:07;;;;;;;12.05;5.85;;;;;;;;;;8258077;28;20440;-70
2021/10/29 10:09:13;;;;;;;10.63;5.78;;;;;;;;;;8260178;28;20053;-70
2021/10/29 10:13:21;;;;;;;10.82;5.80;;;;;;;;;;8257218;28;20389;-71
2021/10/29 10:17:26;;;;;;;10.38;5.20;;;;;;;;;;8257236;28;20472;-71
2021/10/29 10:21:37;;;;;;;11.52;5.15;;;;;;;;;;8256543;28;20353;-72
2021/10/29 10:25:57;;;;;;;8.63;5.03;;;;;;;;;;8256736;28;20460;-70
2021/10/29 10:30:12;;;;;;;10.93;5.32;;;;;;;;;;8256640;28;20071;-71
2021/10/29 10:43:42;;;;;;;16.45;8.85;;;;;;;;;;8257100;28;20384;-73
2021/10/29 10:47:55;;;;;;;8.00;4.68;;;;;;;;;;8256238;28;20509;-70
2021/10/29 10:52:07;;;;;;;8.48;3.95;;;;;;;;;;8256840;28;20482;-71
2021/10/29 11:00:46;;;;;;;10.25;4.43;;;;;;;;;;8258226;28;20482;-70
2021/10/29 11:10:07;;;;;;;7.80;3.80;;;;;;;;;;8259372;28;20351;-72
2021/10/29 11:14:34;;;;;;;7.10;3.97;;;;;;;;;;8258648;28;20391;-70
2021/10/29 11:18:51;;;;;;;8.68;4.43;;;;;;;;;;8257540;28;20045;-70
2021/10/29 11:22:56;;;;;;;9.93;4.40;;;;;;;;;;8255632;28;20464;-70
2021/10/29 11:27:27;;;;;;;8.00;4.40;;;;;;;;;;8077876;28;5000749;-72
2021/10/29 11:31:45;;;;;;;15.02;4.90;;;;;;;;;;8257262;28;20352;-71
2021/10/29 11:36:20;;;;;;;8.43;4.53;;;;;;;;;;8261410;28;20057;-71
2021/10/29 11:40:25;;;;;;;6.22;3.38;;;;;;;;;;8271399;28;20348;-70
2021/10/29 11:44:31;;;;;;;6.88;4.40;;;;;;;;;;8289275;28;20041;-70
2021/10/29 11:48:59;;;;;;;9.25;4.28;;;;;;;;;;8289878;28;20479;-70
2021/10/29 11:53:04;;;;;;;12.23;4.03;;;;;;;;;;8289076;28;20063;-70
2021/10/29 11:57:24;;;;;;;12.75;4.82;;;;;;;;;;8271133;28;20478;-70
2021/10/29 12:01:35;;;;;;;10.13;4.50;;;;;;;;;;8273255;28;20071;-69
2021/10/29 12:10:14;;;;;;;7.22;4.53;;;;;;;;;;8278486;28;20049;-70
2021/10/29 12:14:20;;;;;;;8.68;4.75;;;;;;;;;;8275210;28;20486;-72
2021/10/29 12:18:32;;;;;;;10.38;4.60;;;;;;;;;;8295179;28;20585;-71
2021/10/29 12:22:41;;;;;;;13.48;5.00;;;;;;;;;;8294235;28;20464;-71
2021/10/29 12:26:46;;;;;;;8.57;4.45;;;;;;;;;;8260204;28;20455;-69
2021/10/29 12:30:56;;;;;;;10.65;4.70;;;;;;;;;;8294928;28;20359;-70
2021/10/29 13:01:56;;;;;;;14.10;4.68;;;;;;;;;;8271731;28;20332;-69
2021/10/29 13:06:06;;;;;;;6.65;3.45;;;;;;;;;;8276786;28;20341;-71
2021/10/29 13:10:11;;;;;;;7.47;2.65;;;;;;;;;;8295645;28;20459;-70
2021/10/29 13:14:25;;;;;;;5.45;2.83;;;;;;;;;;8275698;28;20474;-69
2021/10/29 13:18:36;;;;;;;6.80;3.25;;;;;;;;;;8293278;28;20379;-71
2021/10/29 13:23:06;;;;;;;9.32;3.60;;;;;;;;;;8293297;28;20481;-70
2021/10/29 13:53:57;;;;;;;8.02;4.25;;;;;;;;;;8295769;28;20444;-71
2021/10/29 14:02:46;;;;;;;5.28;3.13;;;;;;;;;;8292101;28;20498;-70
2021/10/29 14:24:28;;;;;;;7.90;3.28;;;;;;;;;;8290405;28;20105;-70
2021/10/29 14:28:39;;;;;;;7.70;3.10;;;;;;;;;;8291505;28;20397;-71
2021/10/29 14:32:48;;;;;;;10.88;3.20;;;;;;;;;;8274579;28;20049;-70
2021/10/29 16:20:24;;;;;;;101.50;37.67;;;;;;;;;;8327584;27;20207;-70
2021/10/29 16:24:29;;;;;;;124.47;44.10;;;;;;;;;;8314577;28;20352;-69
2021/10/29 16:28:34;;;;;;;110.78;37.17;;;;;;;;;;8301019;28;20348;-69
2021/10/29 16:32:52;;;;;;;81.10;31.92;;;;;;;;;;8286033;28;20360;-69
2021/10/29 16:36:57;;;;;;;85.10;30.52;;;;;;;;;;8281977;28;20048;-71
2021/10/29 16:41:03;;;;;;;64.40;24.00;;;;;;;;;;8283395;28;20361;-69
2021/10/29 16:45:09;;;;;;;65.75;27.05;;;;;;;;;;8302734;28;20399;-69
2021/10/29 16:49:15;;;;;;;36.65;15.00;;;;;;;;;;8318536;28;20044;-69
2021/10/29 16:53:21;;;;;;;61.45;23.38;;;;;;;;;;8318241;28;20468;-69
2021/10/29 16:57:26;;;;;;;121.03;44.85;;;;;;;;;;8314252;28;20363;-70
2021/10/29 17:01:31;;;;;;;93.50;35.03;;;;;;;;;;8316109;28;20546;-68
2021/10/29 17:05:35;;;;;;;65.90;23.08;;;;;;;;;;8316927;28;20359;-70
2021/10/29 17:09:41;;;;;;;58.67;22.65;;;;;;;;;;8316471;28;20475;-69
2021/10/29 17:13:46;;;;;;;73.38;27.65;;;;;;;;;;8317030;28;20452;-69
2021/10/29 17:17:51;;;;;;;56.85;20.90;;;;;;;;;;8326007;28;20078;-69
2021/10/29 17:21:56;;;;;;;54.33;20.63;;;;;;;;;;8329143;28;20062;-69
2021/10/29 17:26:01;;;;;;;188.27;44.83;;;;;;;;;;8309027;28;20070;-69
2021/10/29 17:30:07;;;;;;;94.10;27.58;;;;;;;;;;8309213;28;20498;-69
2021/10/29 17:34:12;;;;;;;101.10;31.63;;;;;;;;;;8309767;28;20471;-69
2021/10/29 17:38:17;;;;;;;285.90;55.53;;;;;;;;;;8326299;28;20348;-68
2021/10/29 17:42:22;;;;;;;306.13;64.65;;;;;;;;;;8326558;28;20475;-69
2021/10/29 17:46:27;;;;;;;126.10;38.08;;;;;;;;;;8308236;28;20173;-69
2021/10/29 17:50:34;;;;;;;78.93;28.88;;;;;;;;;;8326394;28;20048;-68
2021/10/29 17:54:39;;;;;;;98.22;28.55;;;;;;;;;;8326942;28;20475;-70
2021/10/29 17:58:45;;;;;;;110.00;42.55;;;;;;;;;;8308100;28;20578;-68
2021/10/29 18:02:50;;;;;;;326.38;84.53;;;;;;;;;;8325299;28;20489;-69
2021/10/29 18:06:54;;;;;;;304.75;76.70;;;;;;;;;;8316115;28;20485;-69
2021/10/29 18:10:58;;;;;;;213.77;64.43;;;;;;;;;;8315421;28;20067;-68
2021/10/29 18:15:05;;;;;;;196.90;58.28;;;;;;;;;;8288512;28;20040;-69
2021/10/29 18:19:10;;;;;;;190.20;62.17;;;;;;;;;;8301763;28;20357;-69
2021/10/29 18:23:15;;;;;;;146.10;48.15;;;;;;;;;;8274807;28;20501;-68
2021/10/29 18:27:23;;;;;;;112.28;42.90;;;;;;;;;;8292922;28;20364;-69
2021/10/29 18:31:29;;;;;;;113.18;46.30;;;;;;;;;;8294875;28;20044;-69
2021/10/29 18:35:34;;;;;;;113.07;44.45;;;;;;;;;;8316493;28;20475;-68
2021/10/29 18:39:37;;;;;;;104.10;39.65;;;;;;;;;;8297952;28;20356;-69
2021/10/29 18:43:42;;;;;;;97.55;36.15;;;;;;;;;;8294617;28;20096;-68
2021/10/29 18:47:48;;;;;;;105.32;36.78;;;;;;;;;;8303702;28;20481;-68
2021/10/29 18:51:52;;;;;;;118.18;39.95;;;;;;;;;;8290487;28;20575;-69
2021/10/29 18:55:57;;;;;;;112.82;39.75;;;;;;;;;;8253326;28;20410;-69
2021/10/29 19:00:05;;;;;;;117.65;39.05;;;;;;;;;;8273848;28;20498;-69
2021/10/29 19:04:11;;;;;;;94.88;38.00;;;;;;;;;;8290226;28;20383;-70
2021/10/29 19:08:18;;;;;;;98.90;39.58;;;;;;;;;;8273728;28;20041;-69
2021/10/29 19:12:23;;;;;;;86.75;34.97;;;;;;;;;;8291225;28;20071;-69
2021/10/29 19:16:28;;;;;;;93.38;37.75;;;;;;;;;;8290450;28;20527;-68
2021/10/29 19:20:32;;;;;;;138.38;49.42;;;;;;;;;;8274133;28;20481;-69
2021/10/29 19:24:37;;;;;;;127.95;47.42;;;;;;;;;;8290886;28;20344;-68
2021/10/29 19:28:43;;;;;;;102.10;39.63;;;;;;;;;;8273541;28;20411;-68
2021/10/29 19:32:48;;;;;;;74.45;33.40;;;;;;;;;;8272641;28;20048;-68
2021/10/29 19:37:05;;;;;;;255.20;66.03;;;;;;;;;;8289878;28;20406;-69
2021/10/29 19:41:10;;;;;;;102.40;39.63;;;;;;;;;;8289560;28;20040;-69
2021/10/29 19:45:15;;;;;;;116.63;40.10;;;;;;;;;;8290001;28;20353;-69
2021/10/29 19:49:20;;;;;;;84.38;32.50;;;;;;;;;;8290653;28;20484;-69
2021/10/29 19:53:31;;;;;;;74.93;30.13;;;;;;;;;;8289508;28;20067;-69
2021/10/29 19:57:54;;;;;;;66.07;27.73;;;;;;;;;;8290128;28;20071;-69
2021/10/29 20:02:00;;;;;;;105.05;36.08;;;;;;;;;;8290255;28;20478;-68
2021/10/29 20:06:06;;;;;;;94.43;39.42;;;;;;;;;;8289378;28;20056;-68
2021/10/29 20:10:11;;;;;;;88.93;34.05;;;;;;;;;;8271924;28;20368;-69
2021/10/29 20:14:16;;;;;;;100.68;36.15;;;;;;;;;;8289460;28;20041;-69
2021/10/29 20:18:21;;;;;;;82.00;34.28;;;;;;;;;;8289007;28;20468;-68
2021/10/29 20:22:27;;;;;;;81.53;32.38;;;;;;;;;;8271868;28;20336;-68
2021/10/29 20:26:32;;;;;;;96.10;38.45;;;;;;;;;;8292267;28;20364;-69
2021/10/29 20:30:41;;;;;;;86.60;37.05;;;;;;;;;;8289706;28;20372;-69
2021/10/29 20:34:46;;;;;;;84.70;34.92;;;;;;;;;;8271445;28;20352;-69
2021/10/29 20:38:51;;;;;;;94.38;40.55;;;;;;;;;;8288844;28;20376;-69
2021/10/29 20:42:58;;;;;;;80.32;33.28;;;;;;;;;;8289743;28;20463;-68
2021/10/29 20:47:11;;;;;;;80.93;32.67;;;;;;;;;;8291386;28;20358;-68
2021/10/29 20:51:16;;;;;;;74.15;31.38;;;;;;;;;;8292006;28;20451;-69
2021/10/29 20:55:23;;;;;;;74.95;30.45;;;;;;;;;;8277972;28;20335;-69
2021/10/29 20:59:28;;;;;;;74.13;29.45;;;;;;;;;;8298610;28;20044;-69
2021/10/29 21:03:35;;;;;;;70.05;27.08;;;;;;;;;;8297755;28;20380;-68
2021/10/29 21:07:40;;;;;;;69.78;29.00;;;;;;;;;;8297264;28;20411;-69
2021/10/29 21:11:45;;;;;;;70.07;27.70;;;;;;;;;;8299600;28;20049;-68
2021/10/29 21:15:51;;;;;;;67.90;29.40;;;;;;;;;;8303216;28;20375;-69
2021/10/29 21:19:56;;;;;;;67.85;29.75;;;;;;;;;;8300948;28;20424;-69
2021/10/29 21:24:03;;;;;;;72.63;31.20;;;;;;;;;;8227766;28;20474;-68
2021/10/29 21:28:08;;;;;;;73.28;31.75;;;;;;;;;;8198266;28;20365;-69
2021/10/29 21:32:33;;;;;;;73.32;29.50;;;;;;;;;;8198943;28;20457;-69
2021/10/29 21:36:38;;;;;;;74.18;28.08;;;;;;;;;;8183447;28;20069;-69
2021/10/29 21:40:44;;;;;;;75.97;31.08;;;;;;;;;;8167134;28;20363;-69
2021/10/29 21:44:50;;;;;;;66.22;27.67;;;;;;;;;;8167937;28;20050;-69
2021/10/29 21:48:55;;;;;;;67.68;27.70;;;;;;;;;;8147738;28;20524;-69
2021/10/29 21:53:00;;;;;;;59.95;26.95;;;;;;;;;;8163463;28;20458;-69
2021/10/29 21:57:06;;;;;;;75.55;32.85;;;;;;;;;;8165770;28;20068;-70
2021/10/29 22:01:11;;;;;;;64.70;28.65;;;;;;;;;;8166439;28;20474;-68
2021/10/29 22:05:16;;;;;;;70.95;29.17;;;;;;;;;;8166029;28;20043;-68
2021/10/29 22:09:22;;;;;;;66.53;29.50;;;;;;;;;;8164463;28;20042;-69
2021/10/29 22:13:27;;;;;;;64.28;24.52;;;;;;;;;;8165803;28;20473;-69
2021/10/29 22:17:33;;;;;;;67.40;25.65;;;;;;;;;;8161152;28;20058;-68
2021/10/29 22:21:38;;;;;;;89.85;32.72;;;;;;;;;;8163305;28;20362;-71
2021/10/29 22:25:49;;;;;;;68.68;28.33;;;;;;;;;;8161203;28;20406;-70
2021/10/29 22:29:54;;;;;;;56.85;25.42;;;;;;;;;;8163270;28;20489;-70
2021/10/29 22:34:00;;;;;;;62.75;24.45;;;;;;;;;;8165834;28;20369;-68
2021/10/29 22:38:05;;;;;;;58.85;24.40;;;;;;;;;;8162545;28;20481;-68
2021/10/29 22:42:11;;;;;;;65.20;24.35;;;;;;;;;;8164263;28;20458;-67
2021/10/29 22:46:16;;;;;;;66.93;28.05;;;;;;;;;;8163548;28;20466;-68
2021/10/29 22:50:21;;;;;;;74.53;26.65;;;;;;;;;;8162887;28;20492;-71
2021/10/29 22:54:27;;;;;;;78.78;26.95;;;;;;;;;;8161659;28;20382;-71
2021/10/29 23:12:17;;;;;;;62.42;26.63;;;;;;;;;;8329800;27;1608486;-69
2021/10/29 23:16:23;;;;;;;59.63;24.33;;;;;;;;;;8333840;28;20471;-68
2021/10/29 23:20:28;;;;;;;55.50;24.63;;;;;;;;;;8352969;28;20601;-69
2021/10/29 23:24:33;;;;;;;66.65;25.77;;;;;;;;;;8351688;28;20351;-70
2021/10/29 23:28:38;;;;;;;59.72;26.40;;;;;;;;;;8351252;28;20478;-68
2021/10/29 23:32:42;;;;;;;79.68;30.60;;;;;;;;;;8353175;28;20452;-69
2021/10/29 23:36:47;;;;;;;74.30;32.47;;;;;;;;;;8350717;28;20450;-69
2021/10/29 23:40:52;;;;;;;63.63;29.08;;;;;;;;;;8350186;28;20487;-69
2021/10/29 23:44:57;;;;;;;54.58;23.55;;;;;;;;;;8351284;28;20092;-70
2021/10/29 23:49:02;;;;;;;68.95;28.08;;;;;;;;;;8334434;28;20459;-68
2021/10/29 23:53:07;;;;;;;72.03;29.63;;;;;;;;;;8333050;28;20479;-69
2021/10/29 23:57:12;;;;;;;60.67;25.55;;;;;;;;;;8332408;28;20467;-70
